sensor_id;sensor_type;location;lat;lon;timestamp;P1;durP1;ratioP1;P2;durP2;ratioP2
67896;SDS011;54698;48.428;9.964;2022-07-29T00:00:10;10.77;;;7.00;;
67896;SDS011;54698;48.428;9.964;2022-07-29T00:02:37;12.40;;;6.50;;
67896;SDS011;54698;48.428;9.964;2022-07-29T00:05:05;8.73;;;5.97;;
67896;SDS011;54698;48.428;9.964;2022-07-29T00:07:33;11.77;;;7.00;;
67896;SDS011;54698;48.428;9.964;2022-07-29T00:09:59;10.63;;;7.25;;
67896;SDS011;54698;48.428;9.964;2022-07-29T00:12:25;11.38;;;6.57;;
67896;SDS011;54698;48.428;9.964;2022-07-29T00:14:51;11.13;;;7.03;;
67896;SDS011;54698;48.428;9.964;2022-07-29T00:17:21;11.95;;;7.47;;
67896;SDS011;54698;48.428;9.964;2022-07-29T00:19:47;11.20;;;6.38;;
67896;SDS011;54698;48.428;9.964;2022-07-29T00:22:13;11.00;;;7.25;;
67896;SDS011;54698;48.428;9.964;2022-07-29T00:24:40;11.20;;;7.35;;
67896;SDS011;54698;48.428;9.964;2022-07-29T00:27:06;11.60;;;7.00;;
67896;SDS011;54698;48.428;9.964;2022-07-29T00:29:32;10.98;;;7.28;;
67896;SDS011;54698;48.428;9.964;2022-07-29T00:31:57;14.05;;;6.78;;
67896;SDS011;54698;48.428;9.964;2022-07-29T00:34:25;12.65;;;7.10;;
67896;SDS011;54698;48.428;9.964;2022-07-29T00:36:50;10.65;;;7.63;;
67896;SDS011;54698;48.428;9.964;2022-07-29T00:39:16;10.32;;;6.95;;
67896;SDS011;54698;48.428;9.964;2022-07-29T00:41:42;12.38;;;8.38;;
67896;SDS011;54698;48.428;9.964;2022-07-29T00:44:08;14.88;;;8.63;;
67896;SDS011;54698;48.428;9.964;2022-07-29T00:46:33;14.40;;;9.48;;
67896;SDS011;54698;48.428;9.964;2022-07-29T00:48:59;19.15;;;11.88;;
67896;SDS011;54698;48.428;9.964;2022-07-29T00:51:26;17.05;;;11.85;;
67896;SDS011;54698;48.428;9.964;2022-07-29T00:53:52;18.45;;;12.10;;
67896;SDS011;54698;48.428;9.964;2022-07-29T00:56:18;20.15;;;12.32;;
67896;SDS011;54698;48.428;9.964;2022-07-29T00:58:44;19.40;;;12.48;;
67896;SDS011;54698;48.428;9.964;2022-07-29T01:01:12;20.67;;;14.43;;
67896;SDS011;54698;48.428;9.964;2022-07-29T01:03:38;19.35;;;14.07;;
67896;SDS011;54698;48.428;9.964;2022-07-29T01:06:04;21.23;;;14.20;;
67896;SDS011;54698;48.428;9.964;2022-07-29T01:08:32;18.52;;;13.05;;
67896;SDS011;54698;48.428;9.964;2022-07-29T01:10:58;18.63;;;12.23;;
67896;SDS011;54698;48.428;9.964;2022-07-29T01:13:25;18.75;;;13.50;;
67896;SDS011;54698;48.428;9.964;2022-07-29T01:15:51;22.52;;;14.43;;
67896;SDS011;54698;48.428;9.964;2022-07-29T01:18:24;18.42;;;13.57;;
67896;SDS011;54698;48.428;9.964;2022-07-29T01:21:15;22.58;;;14.35;;
67896;SDS011;54698;48.428;9.964;2022-07-29T01:24:07;18.95;;;13.70;;
67896;SDS011;54698;48.428;9.964;2022-07-29T01:26:45;20.00;;;13.18;;
67896;SDS011;54698;48.428;9.964;2022-07-29T01:29:17;19.88;;;12.80;;
67896;SDS011;54698;48.428;9.964;2022-07-29T01:31:51;14.57;;;10.27;;
67896;SDS011;54698;48.428;9.964;2022-07-29T01:34:23;21.88;;;13.00;;
67896;SDS011;54698;48.428;9.964;2022-07-29T01:36:58;17.98;;;13.10;;
67896;SDS011;54698;48.428;9.964;2022-07-29T01:39:32;22.10;;;14.15;;
67896;SDS011;54698;48.428;9.964;2022-07-29T01:42:04;19.40;;;12.38;;
67896;SDS011;54698;48.428;9.964;2022-07-29T01:44:40;15.75;;;10.30;;
67896;SDS011;54698;48.428;9.964;2022-07-29T01:47:15;17.35;;;12.43;;
67896;SDS011;54698;48.428;9.964;2022-07-29T01:49:47;20.17;;;14.35;;
67896;SDS011;54698;48.428;9.964;2022-07-29T01:52:19;22.38;;;13.82;;
67896;SDS011;54698;48.428;9.964;2022-07-29T01:54:50;20.80;;;14.80;;
67896;SDS011;54698;48.428;9.964;2022-07-29T01:57:21;21.55;;;14.43;;
67896;SDS011;54698;48.428;9.964;2022-07-29T01:59:54;22.10;;;14.53;;
67896;SDS011;54698;48.428;9.964;2022-07-29T02:02:22;21.15;;;14.38;;
67896;SDS011;54698;48.428;9.964;2022-07-29T02:04:49;21.20;;;15.25;;
67896;SDS011;54698;48.428;9.964;2022-07-29T02:07:17;20.83;;;14.50;;
67896;SDS011;54698;48.428;9.964;2022-07-29T02:09:47;23.23;;;14.05;;
67896;SDS011;54698;48.428;9.964;2022-07-29T02:12:14;19.08;;;13.23;;
67896;SDS011;54698;48.428;9.964;2022-07-29T02:14:43;18.80;;;13.25;;
67896;SDS011;54698;48.428;9.964;2022-07-29T02:17:15;19.83;;;13.02;;
67896;SDS011;54698;48.428;9.964;2022-07-29T02:19:48;21.80;;;13.38;;
67896;SDS011;54698;48.428;9.964;2022-07-29T02:22:15;20.50;;;13.02;;
67896;SDS011;54698;48.428;9.964;2022-07-29T02:24:43;19.15;;;12.90;;
67896;SDS011;54698;48.428;9.964;2022-07-29T02:27:12;20.65;;;11.98;;
67896;SDS011;54698;48.428;9.964;2022-07-29T02:29:39;17.88;;;12.00;;
67896;SDS011;54698;48.428;9.964;2022-07-29T02:32:05;20.90;;;12.23;;
67896;SDS011;54698;48.428;9.964;2022-07-29T02:34:36;18.02;;;11.68;;
67896;SDS011;54698;48.428;9.964;2022-07-29T02:37:04;16.92;;;12.30;;
67896;SDS011;54698;48.428;9.964;2022-07-29T02:39:30;18.60;;;11.30;;
67896;SDS011;54698;48.428;9.964;2022-07-29T02:41:58;16.98;;;10.00;;
67896;SDS011;54698;48.428;9.964;2022-07-29T02:44:29;13.50;;;10.10;;
67896;SDS011;54698;48.428;9.964;2022-07-29T02:46:58;17.15;;;10.63;;
67896;SDS011;54698;48.428;9.964;2022-07-29T02:49:36;15.85;;;8.90;;
67896;SDS011;54698;48.428;9.964;2022-07-29T02:52:08;16.05;;;9.60;;
67896;SDS011;54698;48.428;9.964;2022-07-29T02:54:42;14.20;;;9.25;;
67896;SDS011;54698;48.428;9.964;2022-07-29T02:57:14;17.00;;;11.05;;
67896;SDS011;54698;48.428;9.964;2022-07-29T02:59:47;15.57;;;11.15;;
67896;SDS011;54698;48.428;9.964;2022-07-29T03:02:17;16.60;;;9.48;;
67896;SDS011;54698;48.428;9.964;2022-07-29T03:04:46;14.90;;;9.35;;
67896;SDS011;54698;48.428;9.964;2022-07-29T03:07:14;12.57;;;7.95;;
67896;SDS011;54698;48.428;9.964;2022-07-29T03:09:43;13.40;;;8.32;;
67896;SDS011;54698;48.428;9.964;2022-07-29T03:12:10;12.25;;;7.75;;
67896;SDS011;54698;48.428;9.964;2022-07-29T03:14:37;12.40;;;7.97;;
67896;SDS011;54698;48.428;9.964;2022-07-29T03:17:03;11.55;;;7.35;;
67896;SDS011;54698;48.428;9.964;2022-07-29T03:19:30;11.90;;;7.32;;
67896;SDS011;54698;48.428;9.964;2022-07-29T03:21:58;8.70;;;5.90;;
67896;SDS011;54698;48.428;9.964;2022-07-29T03:24:25;9.07;;;5.28;;
67896;SDS011;54698;48.428;9.964;2022-07-29T03:26:56;13.38;;;7.00;;
67896;SDS011;54698;48.428;9.964;2022-07-29T03:29:23;8.07;;;4.93;;
67896;SDS011;54698;48.428;9.964;2022-07-29T03:31:49;10.40;;;5.03;;
67896;SDS011;54698;48.428;9.964;2022-07-29T03:34:15;7.18;;;4.18;;
67896;SDS011;54698;48.428;9.964;2022-07-29T03:36:41;8.90;;;5.30;;
67896;SDS011;54698;48.428;9.964;2022-07-29T03:39:08;8.65;;;3.80;;
67896;SDS011;54698;48.428;9.964;2022-07-29T03:41:35;9.65;;;4.10;;
67896;SDS011;54698;48.428;9.964;2022-07-29T03:44:03;12.02;;;4.70;;
67896;SDS011;54698;48.428;9.964;2022-07-29T03:46:31;6.80;;;2.85;;
67896;SDS011;54698;48.428;9.964;2022-07-29T03:49:00;10.60;;;3.42;;
67896;SDS011;54698;48.428;9.964;2022-07-29T03:51:28;5.85;;;3.15;;
67896;SDS011;54698;48.428;9.964;2022-07-29T03:53:54;6.60;;;2.78;;
67896;SDS011;54698;48.428;9.964;2022-07-29T03:56:21;4.88;;;2.20;;
67896;SDS011;54698;48.428;9.964;2022-07-29T03:58:48;6.03;;;2.17;;
67896;SDS011;54698;48.428;9.964;2022-07-29T04:01:16;5.70;;;2.72;;
67896;SDS011;54698;48.428;9.964;2022-07-29T04:03:43;5.60;;;2.88;;
67896;SDS011;54698;48.428;9.964;2022-07-29T04:06:09;7.72;;;2.28;;
67896;SDS011;54698;48.428;9.964;2022-07-29T04:08:36;6.53;;;3.17;;
67896;SDS011;54698;48.428;9.964;2022-07-29T04:11:03;4.90;;;2.20;;
67896;SDS011;54698;48.428;9.964;2022-07-29T04:13:31;5.35;;;2.30;;
67896;SDS011;54698;48.428;9.964;2022-07-29T04:15:58;9.30;;;2.60;;
67896;SDS011;54698;48.428;9.964;2022-07-29T04:18:24;10.85;;;2.83;;
67896;SDS011;54698;48.428;9.964;2022-07-29T04:20:50;5.70;;;2.25;;
67896;SDS011;54698;48.428;9.964;2022-07-29T04:23:16;5.45;;;2.25;;
67896;SDS011;54698;48.428;9.964;2022-07-29T04:25:42;6.45;;;2.58;;
67896;SDS011;54698;48.428;9.964;2022-07-29T04:28:08;6.22;;;2.42;;
67896;SDS011;54698;48.428;9.964;2022-07-29T04:30:37;8.13;;;3.28;;
67896;SDS011;54698;48.428;9.964;2022-07-29T04:33:04;6.22;;;2.67;;
67896;SDS011;54698;48.428;9.964;2022-07-29T04:35:33;6.20;;;2.35;;
67896;SDS011;54698;48.428;9.964;2022-07-29T04:38:01;6.18;;;2.38;;
67896;SDS011;54698;48.428;9.964;2022-07-29T04:40:26;6.32;;;2.78;;
67896;SDS011;54698;48.428;9.964;2022-07-29T04:42:52;7.65;;;2.45;;
67896;SDS011;54698;48.428;9.964;2022-07-29T04:45:18;6.15;;;2.55;;
67896;SDS011;54698;48.428;9.964;2022-07-29T04:47:46;6.03;;;2.60;;
67896;SDS011;54698;48.428;9.964;2022-07-29T04:50:11;10.50;;;3.10;;
67896;SDS011;54698;48.428;9.964;2022-07-29T04:52:37;5.60;;;2.15;;
67896;SDS011;54698;48.428;9.964;2022-07-29T04:55:04;7.40;;;2.72;;
67896;SDS011;54698;48.428;9.964;2022-07-29T04:57:31;5.47;;;2.28;;
67896;SDS011;54698;48.428;9.964;2022-07-29T04:59:57;5.97;;;2.42;;
67896;SDS011;54698;48.428;9.964;2022-07-29T05:02:22;6.15;;;2.58;;
67896;SDS011;54698;48.428;9.964;2022-07-29T05:04:50;7.10;;;3.40;;
67896;SDS011;54698;48.428;9.964;2022-07-29T05:07:15;5.30;;;2.55;;
67896;SDS011;54698;48.428;9.964;2022-07-29T05:09:41;5.88;;;2.60;;
67896;SDS011;54698;48.428;9.964;2022-07-29T05:12:07;6.88;;;4.50;;
67896;SDS011;54698;48.428;9.964;2022-07-29T05:14:33;7.50;;;3.33;;
67896;SDS011;54698;48.428;9.964;2022-07-29T05:16:59;8.82;;;3.88;;
67896;SDS011;54698;48.428;9.964;2022-07-29T05:19:25;9.20;;;2.58;;
67896;SDS011;54698;48.428;9.964;2022-07-29T05:21:52;5.55;;;2.45;;
67896;SDS011;54698;48.428;9.964;2022-07-29T05:24:18;6.95;;;2.80;;
67896;SDS011;54698;48.428;9.964;2022-07-29T05:26:44;7.72;;;2.70;;
67896;SDS011;54698;48.428;9.964;2022-07-29T05:29:10;6.85;;;2.55;;
67896;SDS011;54698;48.428;9.964;2022-07-29T05:31:35;6.28;;;2.38;;
67896;SDS011;54698;48.428;9.964;2022-07-29T05:34:01;5.45;;;2.10;;
67896;SDS011;54698;48.428;9.964;2022-07-29T05:36:27;7.53;;;2.58;;
67896;SDS011;54698;48.428;9.964;2022-07-29T05:38:54;6.38;;;2.58;;
67896;SDS011;54698;48.428;9.964;2022-07-29T05:41:23;5.90;;;1.92;;
67896;SDS011;54698;48.428;9.964;2022-07-29T05:43:49;5.75;;;2.08;;
67896;SDS011;54698;48.428;9.964;2022-07-29T05:46:14;5.38;;;2.15;;
67896;SDS011;54698;48.428;9.964;2022-07-29T05:48:40;6.03;;;2.25;;
67896;SDS011;54698;48.428;9.964;2022-07-29T05:51:06;6.20;;;2.58;;
67896;SDS011;54698;48.428;9.964;2022-07-29T05:53:32;5.15;;;2.35;;
67896;SDS011;54698;48.428;9.964;2022-07-29T05:56:02;9.45;;;3.40;;
67896;SDS011;54698;48.428;9.964;2022-07-29T05:58:28;7.85;;;2.70;;
67896;SDS011;54698;48.428;9.964;2022-07-29T06:00:54;13.43;;;3.20;;
67896;SDS011;54698;48.428;9.964;2022-07-29T06:03:20;5.82;;;2.47;;
67896;SDS011;54698;48.428;9.964;2022-07-29T06:05:45;5.15;;;2.28;;
67896;SDS011;54698;48.428;9.964;2022-07-29T06:08:11;5.55;;;2.22;;
67896;SDS011;54698;48.428;9.964;2022-07-29T06:10:38;5.55;;;2.55;;
67896;SDS011;54698;48.428;9.964;2022-07-29T06:13:05;5.07;;;2.60;;
67896;SDS011;54698;48.428;9.964;2022-07-29T06:15:31;6.85;;;2.90;;
67896;SDS011;54698;48.428;9.964;2022-07-29T06:17:57;7.97;;;4.10;;
67896;SDS011;54698;48.428;9.964;2022-07-29T06:20:23;6.78;;;3.58;;
67896;SDS011;54698;48.428;9.964;2022-07-29T06:22:48;7.38;;;4.22;;
67896;SDS011;54698;48.428;9.964;2022-07-29T06:25:14;9.07;;;4.43;;
67896;SDS011;54698;48.428;9.964;2022-07-29T06:27:40;7.75;;;3.90;;
67896;SDS011;54698;48.428;9.964;2022-07-29T06:30:08;8.70;;;3.67;;
67896;SDS011;54698;48.428;9.964;2022-07-29T06:32:35;9.15;;;3.70;;
67896;SDS011;54698;48.428;9.964;2022-07-29T06:35:01;10.38;;;4.28;;
67896;SDS011;54698;48.428;9.964;2022-07-29T06:37:27;8.20;;;4.20;;
67896;SDS011;54698;48.428;9.964;2022-07-29T06:39:53;12.27;;;4.88;;
67896;SDS011;54698;48.428;9.964;2022-07-29T06:42:19;11.70;;;6.00;;
67896;SDS011;54698;48.428;9.964;2022-07-29T06:44:45;11.40;;;5.30;;
67896;SDS011;54698;48.428;9.964;2022-07-29T06:47:12;9.23;;;5.20;;
67896;SDS011;54698;48.428;9.964;2022-07-29T06:49:38;8.50;;;4.80;;
67896;SDS011;54698;48.428;9.964;2022-07-29T06:52:04;13.40;;;5.97;;
67896;SDS011;54698;48.428;9.964;2022-07-29T06:54:30;13.57;;;7.40;;
67896;SDS011;54698;48.428;9.964;2022-07-29T06:56:55;12.48;;;6.40;;
67896;SDS011;54698;48.428;9.964;2022-07-29T06:59:21;10.95;;;6.30;;
67896;SDS011;54698;48.428;9.964;2022-07-29T07:01:47;9.90;;;5.82;;
67896;SDS011;54698;48.428;9.964;2022-07-29T07:04:15;15.55;;;7.25;;
67896;SDS011;54698;48.428;9.964;2022-07-29T07:06:41;9.98;;;5.55;;
67896;SDS011;54698;48.428;9.964;2022-07-29T07:09:07;9.13;;;5.80;;
67896;SDS011;54698;48.428;9.964;2022-07-29T07:11:33;9.35;;;5.75;;
67896;SDS011;54698;48.428;9.964;2022-07-29T07:13:59;8.65;;;5.32;;
67896;SDS011;54698;48.428;9.964;2022-07-29T07:16:25;11.75;;;7.82;;
67896;SDS011;54698;48.428;9.964;2022-07-29T07:18:50;9.45;;;5.63;;
67896;SDS011;54698;48.428;9.964;2022-07-29T07:21:18;10.38;;;5.40;;
67896;SDS011;54698;48.428;9.964;2022-07-29T07:23:44;12.48;;;6.35;;
67896;SDS011;54698;48.428;9.964;2022-07-29T07:26:09;11.70;;;5.20;;
67896;SDS011;54698;48.428;9.964;2022-07-29T07:28:35;9.82;;;5.88;;
67896;SDS011;54698;48.428;9.964;2022-07-29T07:31:01;14.63;;;6.60;;
67896;SDS011;54698;48.428;9.964;2022-07-29T07:33:27;13.95;;;7.43;;
67896;SDS011;54698;48.428;9.964;2022-07-29T07:35:53;10.65;;;5.32;;
67896;SDS011;54698;48.428;9.964;2022-07-29T07:38:20;10.10;;;6.15;;
67896;SDS011;54698;48.428;9.964;2022-07-29T07:40:46;9.57;;;5.25;;
67896;SDS011;54698;48.428;9.964;2022-07-29T07:43:11;9.23;;;5.43;;
67896;SDS011;54698;48.428;9.964;2022-07-29T07:45:38;9.52;;;5.95;;
67896;SDS011;54698;48.428;9.964;2022-07-29T07:48:04;9.68;;;5.15;;
67896;SDS011;54698;48.428;9.964;2022-07-29T07:50:30;9.15;;;5.75;;
67896;SDS011;54698;48.428;9.964;2022-07-29T07:52:56;10.13;;;5.38;;
67896;SDS011;54698;48.428;9.964;2022-07-29T07:55:24;9.65;;;5.22;;
67896;SDS011;54698;48.428;9.964;2022-07-29T07:57:50;13.70;;;4.85;;
67896;SDS011;54698;48.428;9.964;2022-07-29T08:00:16;8.80;;;4.80;;
67896;SDS011;54698;48.428;9.964;2022-07-29T08:02:42;9.32;;;5.07;;
67896;SDS011;54698;48.428;9.964;2022-07-29T08:05:09;11.20;;;5.15;;
67896;SDS011;54698;48.428;9.964;2022-07-29T08:07:35;9.55;;;5.03;;
67896;SDS011;54698;48.428;9.964;2022-07-29T08:10:02;8.85;;;4.75;;
67896;SDS011;54698;48.428;9.964;2022-07-29T08:12:30;9.18;;;6.05;;
67896;SDS011;54698;48.428;9.964;2022-07-29T08:14:56;10.93;;;5.57;;
67896;SDS011;54698;48.428;9.964;2022-07-29T08:17:22;11.40;;;5.85;;
67896;SDS011;54698;48.428;9.964;2022-07-29T08:19:48;9.15;;;5.03;;
67896;SDS011;54698;48.428;9.964;2022-07-29T08:22:13;9.75;;;5.07;;
67896;SDS011;54698;48.428;9.964;2022-07-29T08:24:39;7.40;;;4.40;;
67896;SDS011;54698;48.428;9.964;2022-07-29T08:27:05;8.95;;;4.20;;
67896;SDS011;54698;48.428;9.964;2022-07-29T08:29:33;9.13;;;5.03;;
67896;SDS011;54698;48.428;9.964;2022-07-29T08:31:58;6.85;;;4.28;;
67896;SDS011;54698;48.428;9.964;2022-07-29T08:34:24;8.15;;;4.35;;
67896;SDS011;54698;48.428;9.964;2022-07-29T08:36:50;8.82;;;4.10;;
67896;SDS011;54698;48.428;9.964;2022-07-29T08:39:16;7.68;;;5.00;;
67896;SDS011;54698;48.428;9.964;2022-07-29T08:41:42;8.50;;;4.75;;
67896;SDS011;54698;48.428;9.964;2022-07-29T08:44:08;8.52;;;4.55;;
67896;SDS011;54698;48.428;9.964;2022-07-29T08:46:36;7.88;;;4.55;;
67896;SDS011;54698;48.428;9.964;2022-07-29T08:49:02;9.50;;;4.28;;
67896;SDS011;54698;48.428;9.964;2022-07-29T08:51:28;8.88;;;4.18;;
67896;SDS011;54698;48.428;9.964;2022-07-29T08:53:55;9.15;;;4.90;;
67896;SDS011;54698;48.428;9.964;2022-07-29T08:56:22;8.82;;;4.30;;
67896;SDS011;54698;48.428;9.964;2022-07-29T08:58:49;8.95;;;5.38;;
67896;SDS011;54698;48.428;9.964;2022-07-29T09:01:15;8.70;;;4.25;;
67896;SDS011;54698;48.428;9.964;2022-07-29T09:03:48;7.75;;;3.90;;
67896;SDS011;54698;48.428;9.964;2022-07-29T09:06:15;8.55;;;3.90;;
67896;SDS011;54698;48.428;9.964;2022-07-29T09:08:43;9.30;;;4.05;;
67896;SDS011;54698;48.428;9.964;2022-07-29T09:11:09;10.20;;;3.90;;
67896;SDS011;54698;48.428;9.964;2022-07-29T09:13:36;10.35;;;4.05;;
67896;SDS011;54698;48.428;9.964;2022-07-29T09:16:02;7.00;;;3.55;;
67896;SDS011;54698;48.428;9.964;2022-07-29T09:18:36;9.02;;;3.28;;
67896;SDS011;54698;48.428;9.964;2022-07-29T09:21:05;7.53;;;3.20;;
67896;SDS011;54698;48.428;9.964;2022-07-29T09:23:34;7.85;;;3.33;;
67896;SDS011;54698;48.428;9.964;2022-07-29T09:26:02;6.88;;;2.95;;
67896;SDS011;54698;48.428;9.964;2022-07-29T09:28:30;7.00;;;3.70;;
67896;SDS011;54698;48.428;9.964;2022-07-29T09:30:57;8.82;;;5.00;;
67896;SDS011;54698;48.428;9.964;2022-07-29T09:33:24;8.43;;;4.32;;
67896;SDS011;54698;48.428;9.964;2022-07-29T09:36:00;6.80;;;3.55;;
67896;SDS011;54698;48.428;9.964;2022-07-29T09:38:30;6.63;;;3.60;;
67896;SDS011;54698;48.428;9.964;2022-07-29T09:40:57;5.93;;;3.00;;
67896;SDS011;54698;48.428;9.964;2022-07-29T09:43:24;6.75;;;3.03;;
67896;SDS011;54698;48.428;9.964;2022-07-29T09:45:50;10.27;;;3.00;;
67896;SDS011;54698;48.428;9.964;2022-07-29T09:48:16;7.82;;;3.72;;
67896;SDS011;54698;48.428;9.964;2022-07-29T09:50:44;7.35;;;3.13;;
67896;SDS011;54698;48.428;9.964;2022-07-29T09:53:13;8.13;;;3.83;;
67896;SDS011;54698;48.428;9.964;2022-07-29T09:55:56;7.82;;;3.35;;
67896;SDS011;54698;48.428;9.964;2022-07-29T09:58:22;6.55;;;3.40;;
67896;SDS011;54698;48.428;9.964;2022-07-29T10:00:48;5.80;;;2.90;;
67896;SDS011;54698;48.428;9.964;2022-07-29T10:03:17;11.40;;;3.55;;
67896;SDS011;54698;48.428;9.964;2022-07-29T10:05:44;7.28;;;3.75;;
67896;SDS011;54698;48.428;9.964;2022-07-29T10:08:11;8.50;;;3.38;;
67896;SDS011;54698;48.428;9.964;2022-07-29T10:10:39;8.98;;;4.53;;
67896;SDS011;54698;48.428;9.964;2022-07-29T10:13:08;6.57;;;3.50;;
67896;SDS011;54698;48.428;9.964;2022-07-29T10:15:35;8.45;;;3.50;;
67896;SDS011;54698;48.428;9.964;2022-07-29T10:18:03;7.45;;;3.70;;
67896;SDS011;54698;48.428;9.964;2022-07-29T10:20:30;6.05;;;3.13;;
67896;SDS011;54698;48.428;9.964;2022-07-29T10:22:56;6.70;;;3.83;;
67896;SDS011;54698;48.428;9.964;2022-07-29T10:25:23;6.82;;;3.67;;
67896;SDS011;54698;48.428;9.964;2022-07-29T10:27:51;5.93;;;2.75;;
67896;SDS011;54698;48.428;9.964;2022-07-29T10:30:18;7.75;;;2.70;;
67896;SDS011;54698;48.428;9.964;2022-07-29T10:32:52;7.80;;;2.47;;
67896;SDS011;54698;48.428;9.964;2022-07-29T10:35:42;5.68;;;2.88;;
67896;SDS011;54698;48.428;9.964;2022-07-29T10:41:22;5.63;;;3.25;;
67896;SDS011;54698;48.428;9.964;2022-07-29T10:44:05;6.18;;;2.97;;
67896;SDS011;54698;48.428;9.964;2022-07-29T10:46:37;7.85;;;3.55;;
67896;SDS011;54698;48.428;9.964;2022-07-29T10:49:08;6.82;;;2.63;;
67896;SDS011;54698;48.428;9.964;2022-07-29T10:54:40;6.22;;;2.78;;
67896;SDS011;54698;48.428;9.964;2022-07-29T10:57:16;6.82;;;2.20;;
67896;SDS011;54698;48.428;9.964;2022-07-29T10:59:48;6.03;;;2.72;;
67896;SDS011;54698;48.428;9.964;2022-07-29T11:05:09;6.25;;;2.42;;
67896;SDS011;54698;48.428;9.964;2022-07-29T11:07:38;6.35;;;2.58;;
67896;SDS011;54698;48.428;9.964;2022-07-29T11:10:21;7.18;;;2.30;;
67896;SDS011;54698;48.428;9.964;2022-07-29T11:12:50;6.93;;;3.63;;
67896;SDS011;54698;48.428;9.964;2022-07-29T11:15:17;5.35;;;2.47;;
67896;SDS011;54698;48.428;9.964;2022-07-29T11:18:04;5.50;;;2.60;;
67896;SDS011;54698;48.428;9.964;2022-07-29T11:20:34;5.00;;;2.40;;
67896;SDS011;54698;48.428;9.964;2022-07-29T11:23:17;4.82;;;2.20;;
67896;SDS011;54698;48.428;9.964;2022-07-29T11:28:48;5.32;;;2.47;;
67896;SDS011;54698;48.428;9.964;2022-07-29T11:34:21;5.93;;;2.40;;
67896;SDS011;54698;48.428;9.964;2022-07-29T11:42:38;7.95;;;2.67;;
67896;SDS011;54698;48.428;9.964;2022-07-29T11:45:10;6.63;;;2.85;;
67896;SDS011;54698;48.428;9.964;2022-07-29T11:47:39;7.93;;;2.53;;
67896;SDS011;54698;48.428;9.964;2022-07-29T11:50:07;6.68;;;2.55;;
67896;SDS011;54698;48.428;9.964;2022-07-29T11:52:36;5.82;;;1.90;;
67896;SDS011;54698;48.428;9.964;2022-07-29T11:55:04;4.88;;;2.20;;
67896;SDS011;54698;48.428;9.964;2022-07-29T11:57:32;4.45;;;2.17;;
67896;SDS011;54698;48.428;9.964;2022-07-29T12:00:00;5.82;;;1.95;;
67896;SDS011;54698;48.428;9.964;2022-07-29T12:02:31;4.30;;;2.00;;
67896;SDS011;54698;48.428;9.964;2022-07-29T12:05:04;4.65;;;2.05;;
67896;SDS011;54698;48.428;9.964;2022-07-29T12:07:32;7.30;;;1.98;;
67896;SDS011;54698;48.428;9.964;2022-07-29T12:09:59;5.75;;;1.95;;
67896;SDS011;54698;48.428;9.964;2022-07-29T12:12:26;7.07;;;2.22;;
67896;SDS011;54698;48.428;9.964;2022-07-29T12:14:52;8.50;;;2.40;;
67896;SDS011;54698;48.428;9.964;2022-07-29T12:17:27;6.75;;;2.53;;
67896;SDS011;54698;48.428;9.964;2022-07-29T12:19:56;4.20;;;1.88;;
67896;SDS011;54698;48.428;9.964;2022-07-29T12:22:25;6.55;;;2.70;;
67896;SDS011;54698;48.428;9.964;2022-07-29T12:24:51;4.65;;;2.10;;
67896;SDS011;54698;48.428;9.964;2022-07-29T12:27:17;5.38;;;1.70;;
67896;SDS011;54698;48.428;9.964;2022-07-29T12:29:43;6.50;;;2.42;;
67896;SDS011;54698;48.428;9.964;2022-07-29T12:32:09;5.55;;;1.75;;
67896;SDS011;54698;48.428;9.964;2022-07-29T12:34:36;6.85;;;1.92;;
67896;SDS011;54698;48.428;9.964;2022-07-29T12:37:02;4.78;;;2.13;;
67896;SDS011;54698;48.428;9.964;2022-07-29T12:39:29;6.03;;;2.13;;
67896;SDS011;54698;48.428;9.964;2022-07-29T12:41:55;6.05;;;1.75;;
67896;SDS011;54698;48.428;9.964;2022-07-29T12:44:20;7.05;;;1.85;;
67896;SDS011;54698;48.428;9.964;2022-07-29T12:47:00;5.00;;;1.95;;
67896;SDS011;54698;48.428;9.964;2022-07-29T12:49:27;7.10;;;2.22;;
67896;SDS011;54698;48.428;9.964;2022-07-29T12:51:54;4.00;;;1.70;;
67896;SDS011;54698;48.428;9.964;2022-07-29T12:54:20;3.88;;;1.35;;
67896;SDS011;54698;48.428;9.964;2022-07-29T12:56:46;5.68;;;1.70;;
67896;SDS011;54698;48.428;9.964;2022-07-29T12:59:23;5.32;;;1.75;;
67896;SDS011;54698;48.428;9.964;2022-07-29T13:01:49;4.25;;;1.70;;
67896;SDS011;54698;48.428;9.964;2022-07-29T13:04:26;4.55;;;1.88;;
67896;SDS011;54698;48.428;9.964;2022-07-29T13:06:59;7.30;;;2.78;;
67896;SDS011;54698;48.428;9.964;2022-07-29T13:09:35;4.88;;;2.03;;
67896;SDS011;54698;48.428;9.964;2022-07-29T13:12:05;4.70;;;2.25;;
67896;SDS011;54698;48.428;9.964;2022-07-29T13:14:34;6.45;;;2.45;;
67896;SDS011;54698;48.428;9.964;2022-07-29T13:17:04;4.55;;;2.28;;
67896;SDS011;54698;48.428;9.964;2022-07-29T13:19:32;5.88;;;2.78;;
67896;SDS011;54698;48.428;9.964;2022-07-29T13:22:04;4.35;;;2.17;;
67896;SDS011;54698;48.428;9.964;2022-07-29T13:24:30;5.78;;;2.03;;
67896;SDS011;54698;48.428;9.964;2022-07-29T13:26:56;4.68;;;1.88;;
67896;SDS011;54698;48.428;9.964;2022-07-29T13:29:22;5.63;;;1.60;;
67896;SDS011;54698;48.428;9.964;2022-07-29T13:31:47;5.72;;;2.60;;
67896;SDS011;54698;48.428;9.964;2022-07-29T13:34:13;6.75;;;3.10;;
67896;SDS011;54698;48.428;9.964;2022-07-29T13:36:39;18.77;;;5.68;;
67896;SDS011;54698;48.428;9.964;2022-07-29T13:39:06;13.48;;;6.22;;
67896;SDS011;54698;48.428;9.964;2022-07-29T13:41:32;9.98;;;3.67;;
67896;SDS011;54698;48.428;9.964;2022-07-29T13:43:58;9.57;;;3.88;;
67896;SDS011;54698;48.428;9.964;2022-07-29T13:46:24;12.45;;;4.60;;
67896;SDS011;54698;48.428;9.964;2022-07-29T13:48:49;11.20;;;4.45;;
67896;SDS011;54698;48.428;9.964;2022-07-29T13:51:15;10.88;;;3.60;;
67896;SDS011;54698;48.428;9.964;2022-07-29T13:53:41;8.20;;;3.60;;
67896;SDS011;54698;48.428;9.964;2022-07-29T13:56:08;6.20;;;3.50;;
67896;SDS011;54698;48.428;9.964;2022-07-29T13:58:34;8.23;;;4.03;;
67896;SDS011;54698;48.428;9.964;2022-07-29T14:01:00;9.65;;;5.47;;
67896;SDS011;54698;48.428;9.964;2022-07-29T14:03:26;11.13;;;5.03;;
67896;SDS011;54698;48.428;9.964;2022-07-29T14:05:52;8.70;;;4.72;;
67896;SDS011;54698;48.428;9.964;2022-07-29T14:08:17;14.45;;;4.97;;
67896;SDS011;54698;48.428;9.964;2022-07-29T14:10:43;12.20;;;4.50;;
67896;SDS011;54698;48.428;9.964;2022-07-29T14:13:10;9.27;;;4.45;;
67896;SDS011;54698;48.428;9.964;2022-07-29T14:15:36;8.95;;;5.00;;
67896;SDS011;54698;48.428;9.964;2022-07-29T14:18:02;12.25;;;4.57;;
67896;SDS011;54698;48.428;9.964;2022-07-29T14:20:28;7.65;;;5.05;;
67896;SDS011;54698;48.428;9.964;2022-07-29T14:22:54;9.50;;;4.60;;
67896;SDS011;54698;48.428;9.964;2022-07-29T14:25:20;10.25;;;4.18;;
67896;SDS011;54698;48.428;9.964;2022-07-29T14:27:46;12.57;;;3.67;;
67896;SDS011;54698;48.428;9.964;2022-07-29T14:30:13;10.40;;;3.90;;
67896;SDS011;54698;48.428;9.964;2022-07-29T14:32:39;8.40;;;4.60;;
67896;SDS011;54698;48.428;9.964;2022-07-29T14:35:06;9.88;;;4.60;;
67896;SDS011;54698;48.428;9.964;2022-07-29T14:37:34;10.20;;;5.32;;
67896;SDS011;54698;48.428;9.964;2022-07-29T14:40:00;8.57;;;4.38;;
67896;SDS011;54698;48.428;9.964;2022-07-29T14:42:26;6.57;;;3.88;;
67896;SDS011;54698;48.428;9.964;2022-07-29T14:44:51;7.85;;;4.55;;
67896;SDS011;54698;48.428;9.964;2022-07-29T14:47:18;8.00;;;4.80;;
67896;SDS011;54698;48.428;9.964;2022-07-29T14:49:44;10.65;;;5.70;;
67896;SDS011;54698;48.428;9.964;2022-07-29T14:52:10;8.15;;;3.60;;
67896;SDS011;54698;48.428;9.964;2022-07-29T14:54:36;9.98;;;3.55;;
67896;SDS011;54698;48.428;9.964;2022-07-29T14:57:02;6.82;;;3.30;;
67896;SDS011;54698;48.428;9.964;2022-07-29T14:59:28;6.07;;;3.03;;
67896;SDS011;54698;48.428;9.964;2022-07-29T15:01:53;9.05;;;3.40;;
67896;SDS011;54698;48.428;9.964;2022-07-29T15:04:21;7.03;;;3.42;;